Terminal Aerodrome Forecast
Issued by NWS

Home | Current Version | Previous Version | Text Only | Print | Product List | Glossary On
Versions: 1 2 3 4 5 6 7 8 9 10 11 12 13 14 15 16 17 18
000
FTUS44 KLZK 200400 AAB
TAFADF
TAF AMD
KADF 200414Z 2004/2024 00000KT 6SM BR SKC
      TEMPO 2004/2008 2SM BR
     FM200800 00000KT 3SM BR SCT005 SCT250
      TEMPO 2009/2013 1/4SM FG VV001
     FM201400 15005KT P6SM SCT045 SCT250=

USA.gov is the U.S. government's official web portal to all federal, state and local government web resources and services.